sensor_id;sensor_type;location;lat;lon;timestamp;temperature;humidity
24902;DHT22;31328;51.402;0.016;2023-02-27T00:02:25;3.00;93.90
24902;DHT22;31328;51.402;0.016;2023-02-27T00:04:52;3.00;93.90
24902;DHT22;31328;51.402;0.016;2023-02-27T00:07:19;3.00;93.90
24902;DHT22;31328;51.402;0.016;2023-02-27T00:09:51;3.00;93.90
24902;DHT22;31328;51.402;0.016;2023-02-27T00:12:18;2.90;94.00
24902;DHT22;31328;51.402;0.016;2023-02-27T00:14:44;2.90;93.90
24902;DHT22;31328;51.402;0.016;2023-02-27T00:17:11;3.00;94.00
24902;DHT22;31328;51.402;0.016;2023-02-27T00:19:37;3.00;94.10
24902;DHT22;31328;51.402;0.016;2023-02-27T00:22:04;2.90;94.10
24902;DHT22;31328;51.402;0.016;2023-02-27T00:24:30;2.90;94.10
24902;DHT22;31328;51.402;0.016;2023-02-27T00:26:56;2.90;94.10
24902;DHT22;31328;51.402;0.016;2023-02-27T00:29:23;2.90;94.20
24902;DHT22;31328;51.402;0.016;2023-02-27T00:31:51;2.90;94.30
24902;DHT22;31328;51.402;0.016;2023-02-27T00:34:17;2.90;94.30
24902;DHT22;31328;51.402;0.016;2023-02-27T00:36:44;2.90;94.30
24902;DHT22;31328;51.402;0.016;2023-02-27T00:39:10;2.80;94.40
24902;DHT22;31328;51.402;0.016;2023-02-27T00:41:36;2.80;94.40
24902;DHT22;31328;51.402;0.016;2023-02-27T00:44:04;2.80;94.50
24902;DHT22;31328;51.402;0.016;2023-02-27T00:46:30;2.80;94.50
24902;DHT22;31328;51.402;0.016;2023-02-27T00:48:56;2.80;94.50
24902;DHT22;31328;51.402;0.016;2023-02-27T00:51:23;2.80;94.60
24902;DHT22;31328;51.402;0.016;2023-02-27T00:53:50;2.80;94.60
24902;DHT22;31328;51.402;0.016;2023-02-27T00:56:16;2.80;94.70
24902;DHT22;31328;51.402;0.016;2023-02-27T00:58:44;2.80;94.70
24902;DHT22;31328;51.402;0.016;2023-02-27T01:01:10;2.80;94.80
24902;DHT22;31328;51.402;0.016;2023-02-27T01:03:36;2.80;94.80
24902;DHT22;31328;51.402;0.016;2023-02-27T01:06:03;2.70;94.80
24902;DHT22;31328;51.402;0.016;2023-02-27T01:08:30;2.70;94.80
24902;DHT22;31328;51.402;0.016;2023-02-27T01:10:57;2.80;94.90
24902;DHT22;31328;51.402;0.016;2023-02-27T01:13:23;2.70;95.00
24902;DHT22;31328;51.402;0.016;2023-02-27T01:15:50;2.80;95.00
24902;DHT22;31328;51.402;0.016;2023-02-27T01:18:16;2.70;95.00
24902;DHT22;31328;51.402;0.016;2023-02-27T01:20:43;2.70;95.00
24902;DHT22;31328;51.402;0.016;2023-02-27T01:23:12;2.70;95.10
24902;DHT22;31328;51.402;0.016;2023-02-27T01:25:39;2.70;95.10
24902;DHT22;31328;51.402;0.016;2023-02-27T01:28:05;2.70;95.10
24902;DHT22;31328;51.402;0.016;2023-02-27T01:30:31;2.70;95.10
24902;DHT22;31328;51.402;0.016;2023-02-27T01:32:58;2.70;95.20
24902;DHT22;31328;51.402;0.016;2023-02-27T01:35:24;2.70;95.20
24902;DHT22;31328;51.402;0.016;2023-02-27T01:37:50;2.70;95.30
24902;DHT22;31328;51.402;0.016;2023-02-27T01:40:17;2.60;95.30
24902;DHT22;31328;51.402;0.016;2023-02-27T01:42:44;2.60;95.30
24902;DHT22;31328;51.402;0.016;2023-02-27T01:47:45;2.60;95.50
24902;DHT22;31328;51.402;0.016;2023-02-27T01:50:13;2.60;95.50
24902;DHT22;31328;51.402;0.016;2023-02-27T01:52:40;2.60;95.50
24902;DHT22;31328;51.402;0.016;2023-02-27T01:55:09;2.50;95.50
24902;DHT22;31328;51.402;0.016;2023-02-27T01:57:39;2.50;95.60
24902;DHT22;31328;51.402;0.016;2023-02-27T02:00:08;2.50;95.70
24902;DHT22;31328;51.402;0.016;2023-02-27T02:02:46;2.40;95.70
24902;DHT22;31328;51.402;0.016;2023-02-27T02:05:14;2.40;95.80
24902;DHT22;31328;51.402;0.016;2023-02-27T02:07:42;2.40;95.90
24902;DHT22;31328;51.402;0.016;2023-02-27T02:10:11;2.30;95.90
24902;DHT22;31328;51.402;0.016;2023-02-27T02:12:39;2.30;95.90
24902;DHT22;31328;51.402;0.016;2023-02-27T02:15:08;2.20;95.90
24902;DHT22;31328;51.402;0.016;2023-02-27T02:17:50;2.20;96.00
24902;DHT22;31328;51.402;0.016;2023-02-27T02:26:53;2.00;96.10
24902;DHT22;31328;51.402;0.016;2023-02-27T02:32:38;1.80;96.20
24902;DHT22;31328;51.402;0.016;2023-02-27T02:35:18;1.80;96.40
24902;DHT22;31328;51.402;0.016;2023-02-27T02:40:51;1.70;96.40
24902;DHT22;31328;51.402;0.016;2023-02-27T02:43:39;1.60;96.50
24902;DHT22;31328;51.402;0.016;2023-02-27T02:49:13;1.50;96.60
24902;DHT22;31328;51.402;0.016;2023-02-27T02:52:00;1.50;96.70
24902;DHT22;31328;51.402;0.016;2023-02-27T02:54:37;1.40;96.70
24902;DHT22;31328;51.402;0.016;2023-02-27T02:57:18;1.40;96.70
24902;DHT22;31328;51.402;0.016;2023-02-27T03:02:48;1.30;96.90
24902;DHT22;31328;51.402;0.016;2023-02-27T03:05:24;1.30;96.90
24902;DHT22;31328;51.402;0.016;2023-02-27T03:07:56;1.20;97.00
24902;DHT22;31328;51.402;0.016;2023-02-27T03:10:45;1.20;97.00
24902;DHT22;31328;51.402;0.016;2023-02-27T03:13:21;1.10;97.10
24902;DHT22;31328;51.402;0.016;2023-02-27T03:16:06;1.20;97.20
24902;DHT22;31328;51.402;0.016;2023-02-27T03:18:40;1.10;97.30
24902;DHT22;31328;51.402;0.016;2023-02-27T03:21:20;1.10;97.30
24902;DHT22;31328;51.402;0.016;2023-02-27T03:23:51;1.20;97.30
24902;DHT22;31328;51.402;0.016;2023-02-27T03:26:23;1.20;97.40
24902;DHT22;31328;51.402;0.016;2023-02-27T03:29:26;1.20;97.50
24902;DHT22;31328;51.402;0.016;2023-02-27T03:31:55;1.20;97.60
24902;DHT22;31328;51.402;0.016;2023-02-27T03:34:28;1.30;97.70
24902;DHT22;31328;51.402;0.016;2023-02-27T03:37:21;1.30;97.80
24902;DHT22;31328;51.402;0.016;2023-02-27T03:40:04;1.40;97.80
24902;DHT22;31328;51.402;0.016;2023-02-27T03:42:39;1.50;97.70
24902;DHT22;31328;51.402;0.016;2023-02-27T03:48:04;1.60;97.80
24902;DHT22;31328;51.402;0.016;2023-02-27T03:50:33;1.60;97.90
24902;DHT22;31328;51.402;0.016;2023-02-27T03:53:03;1.70;97.70
24902;DHT22;31328;51.402;0.016;2023-02-27T03:55:37;1.70;97.70
24902;DHT22;31328;51.402;0.016;2023-02-27T03:58:05;1.70;97.70
24902;DHT22;31328;51.402;0.016;2023-02-27T04:00:33;1.70;97.70
24902;DHT22;31328;51.402;0.016;2023-02-27T04:03:00;1.80;97.70
24902;DHT22;31328;51.402;0.016;2023-02-27T04:05:29;1.80;97.70
24902;DHT22;31328;51.402;0.016;2023-02-27T04:08:28;1.80;97.80
24902;DHT22;31328;51.402;0.016;2023-02-27T04:19:45;1.80;97.90
24902;DHT22;31328;51.402;0.016;2023-02-27T04:23:09;1.80;97.80
24902;DHT22;31328;51.402;0.016;2023-02-27T04:25:29;1.80;97.80
24902;DHT22;31328;51.402;0.016;2023-02-27T04:28:26;1.80;97.90
24902;DHT22;31328;51.402;0.016;2023-02-27T04:33:43;1.80;97.90
24902;DHT22;31328;51.402;0.016;2023-02-27T04:36:33;1.80;97.90
24902;DHT22;31328;51.402;0.016;2023-02-27T04:42:00;1.80;98.10
24902;DHT22;31328;51.402;0.016;2023-02-27T04:44:27;1.80;98.10
24902;DHT22;31328;51.402;0.016;2023-02-27T04:46:57;1.80;98.20
24902;DHT22;31328;51.402;0.016;2023-02-27T04:49:41;1.70;98.10
24902;DHT22;31328;51.402;0.016;2023-02-27T04:52:26;1.70;98.20
24902;DHT22;31328;51.402;0.016;2023-02-27T04:54:55;1.70;98.10
24902;DHT22;31328;51.402;0.016;2023-02-27T04:57:32;1.70;98.30
24902;DHT22;31328;51.402;0.016;2023-02-27T05:00:02;1.70;98.20
24902;DHT22;31328;51.402;0.016;2023-02-27T05:02:37;1.70;98.20
24902;DHT22;31328;51.402;0.016;2023-02-27T05:05:10;1.60;98.30
24902;DHT22;31328;51.402;0.016;2023-02-27T05:07:43;1.60;98.30
24902;DHT22;31328;51.402;0.016;2023-02-27T05:10:25;1.60;98.40
24902;DHT22;31328;51.402;0.016;2023-02-27T05:12:57;1.60;98.50
24902;DHT22;31328;51.402;0.016;2023-02-27T05:15:35;1.60;98.60
24902;DHT22;31328;51.402;0.016;2023-02-27T05:18:10;1.60;98.60
24902;DHT22;31328;51.402;0.016;2023-02-27T05:29:40;1.50;98.60
24902;DHT22;31328;51.402;0.016;2023-02-27T05:32:18;1.40;98.60
24902;DHT22;31328;51.402;0.016;2023-02-27T05:38:26;1.40;98.70
24902;DHT22;31328;51.402;0.016;2023-02-27T05:41:01;1.30;98.80
24902;DHT22;31328;51.402;0.016;2023-02-27T05:43:33;1.30;98.80
24902;DHT22;31328;51.402;0.016;2023-02-27T05:46:05;1.30;98.90
24902;DHT22;31328;51.402;0.016;2023-02-27T05:48:43;1.30;99.00
24902;DHT22;31328;51.402;0.016;2023-02-27T05:51:12;1.30;99.10
24902;DHT22;31328;51.402;0.016;2023-02-27T05:53:45;1.30;99.10
24902;DHT22;31328;51.402;0.016;2023-02-27T05:56:16;1.30;99.20
24902;DHT22;31328;51.402;0.016;2023-02-27T05:58:50;1.40;99.20
24902;DHT22;31328;51.402;0.016;2023-02-27T06:01:17;1.40;99.20
24902;DHT22;31328;51.402;0.016;2023-02-27T06:03:43;1.40;99.20
24902;DHT22;31328;51.402;0.016;2023-02-27T06:06:16;1.40;99.20
24902;DHT22;31328;51.402;0.016;2023-02-27T06:08:44;1.40;99.20
24902;DHT22;31328;51.402;0.016;2023-02-27T06:11:11;1.40;99.20
24902;DHT22;31328;51.402;0.016;2023-02-27T06:13:38;1.30;99.20
24902;DHT22;31328;51.402;0.016;2023-02-27T06:16:06;1.30;99.30
24902;DHT22;31328;51.402;0.016;2023-02-27T06:18:34;1.30;99.40
24902;DHT22;31328;51.402;0.016;2023-02-27T06:21:00;1.30;99.40
24902;DHT22;31328;51.402;0.016;2023-02-27T06:23:27;1.30;99.40
24902;DHT22;31328;51.402;0.016;2023-02-27T06:25:53;1.30;99.40
24902;DHT22;31328;51.402;0.016;2023-02-27T06:28:19;1.30;99.40
24902;DHT22;31328;51.402;0.016;2023-02-27T06:30:46;1.20;99.40
24902;DHT22;31328;51.402;0.016;2023-02-27T06:33:13;1.10;99.40
24902;DHT22;31328;51.402;0.016;2023-02-27T06:35:39;1.10;99.40
24902;DHT22;31328;51.402;0.016;2023-02-27T06:38:06;1.10;99.50
24902;DHT22;31328;51.402;0.016;2023-02-27T06:40:32;1.00;99.50
24902;DHT22;31328;51.402;0.016;2023-02-27T06:42:58;1.00;99.60
24902;DHT22;31328;51.402;0.016;2023-02-27T06:45:25;1.00;99.60
24902;DHT22;31328;51.402;0.016;2023-02-27T06:47:51;0.90;99.60
24902;DHT22;31328;51.402;0.016;2023-02-27T06:50:17;0.90;99.60
24902;DHT22;31328;51.402;0.016;2023-02-27T06:52:44;0.90;99.70
24902;DHT22;31328;51.402;0.016;2023-02-27T06:55:10;0.80;99.70
24902;DHT22;31328;51.402;0.016;2023-02-27T06:57:37;0.80;99.70
24902;DHT22;31328;51.402;0.016;2023-02-27T07:00:04;0.80;99.80
24902;DHT22;31328;51.402;0.016;2023-02-27T07:02:32;0.80;99.80
24902;DHT22;31328;51.402;0.016;2023-02-27T07:04:58;0.80;99.80
24902;DHT22;31328;51.402;0.016;2023-02-27T07:07:24;0.80;99.80
24902;DHT22;31328;51.402;0.016;2023-02-27T07:09:51;0.70;99.80
24902;DHT22;31328;51.402;0.016;2023-02-27T07:12:18;0.70;99.80
24902;DHT22;31328;51.402;0.016;2023-02-27T07:14:44;0.70;99.90
24902;DHT22;31328;51.402;0.016;2023-02-27T07:17:10;0.70;99.90
24902;DHT22;31328;51.402;0.016;2023-02-27T07:19:37;0.70;99.90
24902;DHT22;31328;51.402;0.016;2023-02-27T07:22:03;0.70;99.90
24902;DHT22;31328;51.402;0.016;2023-02-27T07:24:30;0.70;99.90
24902;DHT22;31328;51.402;0.016;2023-02-27T07:26:56;0.70;99.90
24902;DHT22;31328;51.402;0.016;2023-02-27T07:29:23;0.70;99.90
24902;DHT22;31328;51.402;0.016;2023-02-27T07:31:49;0.70;99.90
24902;DHT22;31328;51.402;0.016;2023-02-27T07:34:15;0.80;99.90
24902;DHT22;31328;51.402;0.016;2023-02-27T07:36:42;0.80;99.90
24902;DHT22;31328;51.402;0.016;2023-02-27T07:39:08;0.80;99.90
24902;DHT22;31328;51.402;0.016;2023-02-27T07:41:36;0.90;99.90
24902;DHT22;31328;51.402;0.016;2023-02-27T07:44:04;0.80;99.90
24902;DHT22;31328;51.402;0.016;2023-02-27T07:46:32;0.90;99.90
24902;DHT22;31328;51.402;0.016;2023-02-27T07:48:58;0.90;99.90
24902;DHT22;31328;51.402;0.016;2023-02-27T07:51:25;0.90;99.90
24902;DHT22;31328;51.402;0.016;2023-02-27T07:53:51;1.00;99.90
24902;DHT22;31328;51.402;0.016;2023-02-27T07:56:17;1.00;99.90
24902;DHT22;31328;51.402;0.016;2023-02-27T07:58:44;1.00;99.90
24902;DHT22;31328;51.402;0.016;2023-02-27T08:01:10;1.00;99.90
24902;DHT22;31328;51.402;0.016;2023-02-27T08:03:37;1.00;99.90
24902;DHT22;31328;51.402;0.016;2023-02-27T08:06:03;1.10;99.90
24902;DHT22;31328;51.402;0.016;2023-02-27T08:08:30;1.10;99.90
24902;DHT22;31328;51.402;0.016;2023-02-27T08:10:56;1.10;99.90
24902;DHT22;31328;51.402;0.016;2023-02-27T08:13:23;1.20;99.90
24902;DHT22;31328;51.402;0.016;2023-02-27T08:15:50;1.30;99.90
24902;DHT22;31328;51.402;0.016;2023-02-27T08:18:16;1.30;99.90
24902;DHT22;31328;51.402;0.016;2023-02-27T08:20:43;1.40;99.90
24902;DHT22;31328;51.402;0.016;2023-02-27T08:23:09;1.50;99.90
24902;DHT22;31328;51.402;0.016;2023-02-27T08:25:37;1.60;99.90
24902;DHT22;31328;51.402;0.016;2023-02-27T08:28:03;1.60;99.90
24902;DHT22;31328;51.402;0.016;2023-02-27T08:30:30;1.60;99.90
24902;DHT22;31328;51.402;0.016;2023-02-27T08:32:56;1.70;99.90
24902;DHT22;31328;51.402;0.016;2023-02-27T08:35:22;1.80;99.90
24902;DHT22;31328;51.402;0.016;2023-02-27T08:37:49;2.00;99.90
24902;DHT22;31328;51.402;0.016;2023-02-27T08:40:16;2.10;99.90
24902;DHT22;31328;51.402;0.016;2023-02-27T08:42:42;2.30;99.90
24902;DHT22;31328;51.402;0.016;2023-02-27T08:45:09;2.50;99.90
24902;DHT22;31328;51.402;0.016;2023-02-27T08:47:35;2.70;99.90
24902;DHT22;31328;51.402;0.016;2023-02-27T08:50:03;2.90;99.90
24902;DHT22;31328;51.402;0.016;2023-02-27T08:52:31;3.10;99.90
24902;DHT22;31328;51.402;0.016;2023-02-27T08:54:57;3.40;99.90
24902;DHT22;31328;51.402;0.016;2023-02-27T08:57:23;3.50;99.90
24902;DHT22;31328;51.402;0.016;2023-02-27T08:59:50;3.80;99.90
24902;DHT22;31328;51.402;0.016;2023-02-27T09:02:16;3.90;99.90
24902;DHT22;31328;51.402;0.016;2023-02-27T09:04:43;4.10;99.90
24902;DHT22;31328;51.402;0.016;2023-02-27T09:07:09;4.20;99.90
24902;DHT22;31328;51.402;0.016;2023-02-27T09:09:35;4.40;99.90
24902;DHT22;31328;51.402;0.016;2023-02-27T09:12:02;4.50;99.90
24902;DHT22;31328;51.402;0.016;2023-02-27T09:14:28;4.60;99.90
24902;DHT22;31328;51.402;0.016;2023-02-27T09:16:54;4.70;99.90
24902;DHT22;31328;51.402;0.016;2023-02-27T09:19:21;4.80;99.90
24902;DHT22;31328;51.402;0.016;2023-02-27T09:21:47;4.80;99.90
24902;DHT22;31328;51.402;0.016;2023-02-27T09:24:13;4.90;99.90
24902;DHT22;31328;51.402;0.016;2023-02-27T09:26:40;5.00;99.90
24902;DHT22;31328;51.402;0.016;2023-02-27T09:29:06;5.10;99.90
24902;DHT22;31328;51.402;0.016;2023-02-27T09:31:32;5.20;99.90
24902;DHT22;31328;51.402;0.016;2023-02-27T09:33:58;5.20;99.90
24902;DHT22;31328;51.402;0.016;2023-02-27T09:36:27;5.30;99.90
24902;DHT22;31328;51.402;0.016;2023-02-27T09:38:54;5.40;99.80
24902;DHT22;31328;51.402;0.016;2023-02-27T09:43:57;5.60;99.80
24902;DHT22;31328;51.402;0.016;2023-02-27T09:46:23;5.60;99.80
24902;DHT22;31328;51.402;0.016;2023-02-27T09:48:59;5.70;99.70
24902;DHT22;31328;51.402;0.016;2023-02-27T09:51:26;5.80;99.70
24902;DHT22;31328;51.402;0.016;2023-02-27T09:53:57;5.90;99.70
24902;DHT22;31328;51.402;0.016;2023-02-27T09:56:56;6.00;99.90
24902;DHT22;31328;51.402;0.016;2023-02-27T09:59:37;6.10;99.70
24902;DHT22;31328;51.402;0.016;2023-02-27T10:02:23;6.20;99.60
24902;DHT22;31328;51.402;0.016;2023-02-27T10:04:58;6.30;99.60
24902;DHT22;31328;51.402;0.016;2023-02-27T10:16:19;6.70;99.30
24902;DHT22;31328;51.402;0.016;2023-02-27T10:18:52;6.80;99.30
24902;DHT22;31328;51.402;0.016;2023-02-27T10:21:21;6.90;99.20
24902;DHT22;31328;51.402;0.016;2023-02-27T10:23:58;7.00;99.00
24902;DHT22;31328;51.402;0.016;2023-02-27T10:26:32;7.00;99.10
24902;DHT22;31328;51.402;0.016;2023-02-27T10:31:46;7.10;99.00
24902;DHT22;31328;51.402;0.016;2023-02-27T10:34:15;7.20;98.80
24902;DHT22;31328;51.402;0.016;2023-02-27T10:36:44;7.30;98.80
24902;DHT22;31328;51.402;0.016;2023-02-27T10:39:15;7.30;98.80
24902;DHT22;31328;51.402;0.016;2023-02-27T10:41:43;7.40;98.80
24902;DHT22;31328;51.402;0.016;2023-02-27T10:44:14;7.50;98.70
24902;DHT22;31328;51.402;0.016;2023-02-27T10:46:41;7.60;98.50
24902;DHT22;31328;51.402;0.016;2023-02-27T10:49:16;7.60;98.30
24902;DHT22;31328;51.402;0.016;2023-02-27T10:51:44;7.70;98.10
24902;DHT22;31328;51.402;0.016;2023-02-27T10:54:13;7.70;97.90
24902;DHT22;31328;51.402;0.016;2023-02-27T10:56:39;7.60;97.70
24902;DHT22;31328;51.402;0.016;2023-02-27T10:59:22;7.60;97.70
24902;DHT22;31328;51.402;0.016;2023-02-27T11:01:54;7.60;97.80
24902;DHT22;31328;51.402;0.016;2023-02-27T11:04:35;7.60;97.70
24902;DHT22;31328;51.402;0.016;2023-02-27T11:07:13;7.60;97.40
24902;DHT22;31328;51.402;0.016;2023-02-27T11:09:41;7.50;97.50
24902;DHT22;31328;51.402;0.016;2023-02-27T11:12:25;7.60;97.60
24902;DHT22;31328;51.402;0.016;2023-02-27T11:14:54;7.60;97.40
24902;DHT22;31328;51.402;0.016;2023-02-27T11:17:29;7.60;97.40
24902;DHT22;31328;51.402;0.016;2023-02-27T11:19:59;7.70;97.00
24902;DHT22;31328;51.402;0.016;2023-02-27T11:22:28;7.60;96.50
24902;DHT22;31328;51.402;0.016;2023-02-27T11:25:30;7.70;96.60
24902;DHT22;31328;51.402;0.016;2023-02-27T11:31:01;7.70;96.10
24902;DHT22;31328;51.402;0.016;2023-02-27T11:33:32;7.80;95.80
24902;DHT22;31328;51.402;0.016;2023-02-27T11:36:00;7.80;95.50
24902;DHT22;31328;51.402;0.016;2023-02-27T11:38:28;7.90;95.50
24902;DHT22;31328;51.402;0.016;2023-02-27T11:41:03;8.00;95.00
24902;DHT22;31328;51.402;0.016;2023-02-27T11:43:33;8.10;94.90
24902;DHT22;31328;51.402;0.016;2023-02-27T11:46:06;8.20;94.80
24902;DHT22;31328;51.402;0.016;2023-02-27T11:48:59;8.40;94.40
24902;DHT22;31328;51.402;0.016;2023-02-27T11:54:33;8.50;94.10
24902;DHT22;31328;51.402;0.016;2023-02-27T11:57:04;8.50;93.90
24902;DHT22;31328;51.402;0.016;2023-02-27T12:00:05;8.50;94.00
24902;DHT22;31328;51.402;0.016;2023-02-27T12:08:46;8.40;94.10
24902;DHT22;31328;51.402;0.016;2023-02-27T12:11:56;8.40;93.30
24902;DHT22;31328;51.402;0.016;2023-02-27T12:13:58;8.40;93.20
24902;DHT22;31328;51.402;0.016;2023-02-27T12:16:35;8.40;93.40
24902;DHT22;31328;51.402;0.016;2023-02-27T12:21:58;8.40;92.90
24902;DHT22;31328;51.402;0.016;2023-02-27T12:24:40;8.40;93.20
24902;DHT22;31328;51.402;0.016;2023-02-27T12:27:13;8.30;92.90
24902;DHT22;31328;51.402;0.016;2023-02-27T12:29:50;8.20;92.90
24902;DHT22;31328;51.402;0.016;2023-02-27T12:32:42;8.20;93.30
24902;DHT22;31328;51.402;0.016;2023-02-27T12:35:18;8.20;93.30
24902;DHT22;31328;51.402;0.016;2023-02-27T12:37:47;8.20;93.40
24902;DHT22;31328;51.402;0.016;2023-02-27T12:40:16;8.20;93.40
24902;DHT22;31328;51.402;0.016;2023-02-27T12:48:33;8.40;93.40
24902;DHT22;31328;51.402;0.016;2023-02-27T12:53:49;8.60;93.10
24902;DHT22;31328;51.402;0.016;2023-02-27T12:56:21;8.70;93.10
24902;DHT22;31328;51.402;0.016;2023-02-27T12:59:20;8.70;92.60
24902;DHT22;31328;51.402;0.016;2023-02-27T13:01:58;8.70;92.50
24902;DHT22;31328;51.402;0.016;2023-02-27T13:07:08;8.70;92.60
24902;DHT22;31328;51.402;0.016;2023-02-27T13:09:50;8.70;92.40
24902;DHT22;31328;51.402;0.016;2023-02-27T13:15:26;8.90;92.10
24902;DHT22;31328;51.402;0.016;2023-02-27T13:21:09;9.00;92.40
24902;DHT22;31328;51.402;0.016;2023-02-27T13:26:25;9.30;92.30
24902;DHT22;31328;51.402;0.016;2023-02-27T13:28:53;9.40;92.30
24902;DHT22;31328;51.402;0.016;2023-02-27T13:34:22;9.60;92.20
24902;DHT22;31328;51.402;0.016;2023-02-27T13:37:04;9.60;91.70
24902;DHT22;31328;51.402;0.016;2023-02-27T13:45:00;9.80;92.30
24902;DHT22;31328;51.402;0.016;2023-02-27T13:50:04;9.90;92.10
24902;DHT22;31328;51.402;0.016;2023-02-27T13:52:50;9.90;91.90
24902;DHT22;31328;51.402;0.016;2023-02-27T13:57:54;9.80;91.70
24902;DHT22;31328;51.402;0.016;2023-02-27T14:00:24;9.70;91.20
24902;DHT22;31328;51.402;0.016;2023-02-27T14:02:56;9.70;91.40
24902;DHT22;31328;51.402;0.016;2023-02-27T14:05:41;9.60;91.40
24902;DHT22;31328;51.402;0.016;2023-02-27T14:11:20;9.50;91.70
24902;DHT22;31328;51.402;0.016;2023-02-27T14:24:38;9.20;90.80
24902;DHT22;31328;51.402;0.016;2023-02-27T14:27:23;9.10;91.10
24902;DHT22;31328;51.402;0.016;2023-02-27T14:29:51;9.10;91.10
24902;DHT22;31328;51.402;0.016;2023-02-27T14:32:23;9.10;91.10
24902;DHT22;31328;51.402;0.016;2023-02-27T14:34:52;9.20;90.80
24902;DHT22;31328;51.402;0.016;2023-02-27T14:37:21;9.20;90.80
24902;DHT22;31328;51.402;0.016;2023-02-27T14:39:51;9.20;90.80
24902;DHT22;31328;51.402;0.016;2023-02-27T14:45:22;9.30;90.70
24902;DHT22;31328;51.402;0.016;2023-02-27T14:47:49;9.30;91.00
24902;DHT22;31328;51.402;0.016;2023-02-27T14:50:28;9.20;91.10
24902;DHT22;31328;51.402;0.016;2023-02-27T14:52:57;9.20;91.20
24902;DHT22;31328;51.402;0.016;2023-02-27T14:55:32;9.10;91.20
24902;DHT22;31328;51.402;0.016;2023-02-27T15:03:24;8.90;91.60
24902;DHT22;31328;51.402;0.016;2023-02-27T15:05:53;8.80;91.80
24902;DHT22;31328;51.402;0.016;2023-02-27T15:08:24;8.80;92.20
24902;DHT22;31328;51.402;0.016;2023-02-27T15:10:52;8.70;92.00
24902;DHT22;31328;51.402;0.016;2023-02-27T15:13:27;8.70;91.90
24902;DHT22;31328;51.402;0.016;2023-02-27T15:18:50;8.70;91.90
24902;DHT22;31328;51.402;0.016;2023-02-27T15:21:20;8.80;91.90
24902;DHT22;31328;51.402;0.016;2023-02-27T15:26:20;8.90;91.60
24902;DHT22;31328;51.402;0.016;2023-02-27T15:28:47;8.90;91.60
24902;DHT22;31328;51.402;0.016;2023-02-27T15:31:21;8.80;91.40
24902;DHT22;31328;51.402;0.016;2023-02-27T15:33:49;8.80;91.40
24902;DHT22;31328;51.402;0.016;2023-02-27T15:36:25;8.80;91.40
24902;DHT22;31328;51.402;0.016;2023-02-27T15:41:37;8.70;91.30
24902;DHT22;31328;51.402;0.016;2023-02-27T15:44:04;8.70;91.80
24902;DHT22;31328;51.402;0.016;2023-02-27T15:46:30;8.70;91.50
24902;DHT22;31328;51.402;0.016;2023-02-27T15:48:58;8.70;91.50
24902;DHT22;31328;51.402;0.016;2023-02-27T15:51:25;8.70;91.40
24902;DHT22;31328;51.402;0.016;2023-02-27T15:53:54;8.70;91.50
24902;DHT22;31328;51.402;0.016;2023-02-27T15:56:33;8.60;91.60
24902;DHT22;31328;51.402;0.016;2023-02-27T15:59:03;8.70;91.70
24902;DHT22;31328;51.402;0.016;2023-02-27T16:01:31;8.70;91.70
24902;DHT22;31328;51.402;0.016;2023-02-27T16:03:59;8.70;91.50
24902;DHT22;31328;51.402;0.016;2023-02-27T16:06:27;8.70;91.40
24902;DHT22;31328;51.402;0.016;2023-02-27T16:09:04;8.70;91.30
24902;DHT22;31328;51.402;0.016;2023-02-27T16:11:33;8.70;91.40
24902;DHT22;31328;51.402;0.016;2023-02-27T16:14:00;8.70;91.30
24902;DHT22;31328;51.402;0.016;2023-02-27T16:16:32;8.70;91.30
24902;DHT22;31328;51.402;0.016;2023-02-27T16:19:33;8.60;91.30
24902;DHT22;31328;51.402;0.016;2023-02-27T16:22:04;8.60;91.10
24902;DHT22;31328;51.402;0.016;2023-02-27T16:24:32;8.60;91.30
24902;DHT22;31328;51.402;0.016;2023-02-27T16:26:59;8.50;91.30
24902;DHT22;31328;51.402;0.016;2023-02-27T16:29:35;8.50;91.40
24902;DHT22;31328;51.402;0.016;2023-02-27T16:32:05;8.40;91.60
24902;DHT22;31328;51.402;0.016;2023-02-27T16:34:34;8.40;91.50
24902;DHT22;31328;51.402;0.016;2023-02-27T16:37:03;8.30;91.60
24902;DHT22;31328;51.402;0.016;2023-02-27T16:39:31;8.30;91.70
24902;DHT22;31328;51.402;0.016;2023-02-27T16:42:00;8.20;91.70
24902;DHT22;31328;51.402;0.016;2023-02-27T16:44:27;8.20;91.90
24902;DHT22;31328;51.402;0.016;2023-02-27T16:46:55;8.20;92.00
24902;DHT22;31328;51.402;0.016;2023-02-27T16:49:26;8.10;92.00
24902;DHT22;31328;51.402;0.016;2023-02-27T16:51:53;8.10;92.00
24902;DHT22;31328;51.402;0.016;2023-02-27T16:54:20;8.10;92.00
24902;DHT22;31328;51.402;0.016;2023-02-27T16:56:47;8.00;91.90
24902;DHT22;31328;51.402;0.016;2023-02-27T16:59:31;8.00;92.00
24902;DHT22;31328;51.402;0.016;2023-02-27T17:02:00;7.90;92.10
24902;DHT22;31328;51.402;0.016;2023-02-27T17:04:28;7.80;92.20
24902;DHT22;31328;51.402;0.016;2023-02-27T17:06:57;7.80;92.30
24902;DHT22;31328;51.402;0.016;2023-02-27T17:09:24;7.70;92.40
24902;DHT22;31328;51.402;0.016;2023-02-27T17:11:53;7.70;92.60
24902;DHT22;31328;51.402;0.016;2023-02-27T17:14:20;7.70;92.60
24902;DHT22;31328;51.402;0.016;2023-02-27T17:16:47;7.60;92.60
24902;DHT22;31328;51.402;0.016;2023-02-27T17:19:13;7.60;92.60
24902;DHT22;31328;51.402;0.016;2023-02-27T17:21:40;7.50;92.60
24902;DHT22;31328;51.402;0.016;2023-02-27T17:24:06;7.50;92.70
24902;DHT22;31328;51.402;0.016;2023-02-27T17:26:34;7.40;92.70
24902;DHT22;31328;51.402;0.016;2023-02-27T17:29:00;7.40;92.80
24902;DHT22;31328;51.402;0.016;2023-02-27T17:31:28;7.40;92.90
24902;DHT22;31328;51.402;0.016;2023-02-27T17:33:54;7.40;93.00
24902;DHT22;31328;51.402;0.016;2023-02-27T17:36:21;7.30;93.10
24902;DHT22;31328;51.402;0.016;2023-02-27T17:38:56;7.30;93.10
24902;DHT22;31328;51.402;0.016;2023-02-27T17:41:23;7.30;93.20
24902;DHT22;31328;51.402;0.016;2023-02-27T17:43:54;7.30;93.30
24902;DHT22;31328;51.402;0.016;2023-02-27T17:46:22;7.30;93.40
24902;DHT22;31328;51.402;0.016;2023-02-27T17:48:49;7.30;93.50
24902;DHT22;31328;51.402;0.016;2023-02-27T17:51:16;7.20;93.60
24902;DHT22;31328;51.402;0.016;2023-02-27T17:53:43;7.20;93.70
24902;DHT22;31328;51.402;0.016;2023-02-27T17:56:10;7.20;93.70
24902;DHT22;31328;51.402;0.016;2023-02-27T17:58:37;7.20;93.80
24902;DHT22;31328;51.402;0.016;2023-02-27T18:03:30;7.10;93.90
24902;DHT22;31328;51.402;0.016;2023-02-27T18:05:57;7.10;93.90
24902;DHT22;31328;51.402;0.016;2023-02-27T18:08:23;7.00;93.90
24902;DHT22;31328;51.402;0.016;2023-02-27T18:10:50;7.00;94.00
24902;DHT22;31328;51.402;0.016;2023-02-27T18:13:17;7.00;94.00
24902;DHT22;31328;51.402;0.016;2023-02-27T18:15:44;6.90;94.00
24902;DHT22;31328;51.402;0.016;2023-02-27T18:18:11;6.90;94.10
24902;DHT22;31328;51.402;0.016;2023-02-27T18:20:38;6.90;94.20
24902;DHT22;31328;51.402;0.016;2023-02-27T18:23:08;6.80;94.10
24902;DHT22;31328;51.402;0.016;2023-02-27T18:25:35;6.80;94.20
24902;DHT22;31328;51.402;0.016;2023-02-27T18:28:02;6.70;94.20
24902;DHT22;31328;51.402;0.016;2023-02-27T18:30:30;6.70;94.20
24902;DHT22;31328;51.402;0.016;2023-02-27T18:32:59;6.60;94.30
24902;DHT22;31328;51.402;0.016;2023-02-27T18:35:26;6.60;94.30